Time;durP1;ratioP1;P1;durP2;ratioP2;P2;SDS_P1;SDS_P2;PMS_P1;PMS_P2;Temp;Humidity;BMP_temperature;BMP_pressure;BME280_temperature;BME280_humidity;BME280_pressure;Samples;Min_cycle;Max_cycle;Signal;HPM_P1;HPM_P2
2023/07/01 00:00:28;;;;;;;8.45;2.30;;;17.70;99.90;;;;;;5054716;28;20481;-75
2023/07/01 00:02:53;;;;;;;6.43;1.83;;;17.80;99.90;;;;;;5046376;28;20041;-75
2023/07/01 00:05:22;;;;;;;8.07;2.50;;;17.70;99.90;;;;;;5053476;28;20095;-76
2023/07/01 00:07:48;;;;;;;9.23;2.13;;;17.70;99.90;;;;;;5053348;28;20086;-76
2023/07/01 00:10:13;;;;;;;6.40;2.13;;;17.80;99.90;;;;;;5070562;28;20532;-76
2023/07/01 00:12:39;;;;;;;7.13;2.28;;;17.80;99.90;;;;;;5055874;28;20037;-76
2023/07/01 00:15:06;;;;;;;7.43;2.15;;;17.80;99.90;;;;;;5073276;28;20051;-75
2023/07/01 00:17:32;;;;;;;9.63;2.28;;;17.80;99.90;;;;;;5071940;28;20047;-75
2023/07/01 00:19:57;;;;;;;9.27;2.03;;;17.80;99.90;;;;;;5057263;28;20045;-76
2023/07/01 00:22:23;;;;;;;7.97;2.78;;;17.80;99.90;;;;;;5039578;28;20042;-76
2023/07/01 00:24:48;;;;;;;8.45;2.20;;;17.90;99.90;;;;;;5072309;28;20094;-76
2023/07/01 00:27:14;;;;;;;8.13;2.00;;;17.70;99.90;;;;;;5056494;28;20067;-76
2023/07/01 00:29:40;;;;;;;10.98;2.40;;;17.80;99.90;;;;;;5055527;28;20032;-76
2023/07/01 00:32:06;;;;;;;7.22;2.30;;;17.80;99.90;;;;;;5069793;28;20044;-76
2023/07/01 00:34:32;;;;;;;9.60;1.95;;;17.80;99.90;;;;;;5036636;28;20045;-75
2023/07/01 00:36:58;;;;;;;9.70;2.40;;;17.80;99.90;;;;;;5052955;28;20037;-75
2023/07/01 00:39:23;;;;;;;7.78;2.20;;;17.80;99.90;;;;;;5063051;28;20408;-76
2023/07/01 00:41:53;;;;;;;7.97;2.03;;;17.70;99.90;;;;;;5055284;28;20097;-76
2023/07/01 00:44:19;;;;;;;8.63;2.20;;;17.80;99.90;;;;;;5059434;28;20033;-75
2023/07/01 00:46:45;;;;;;;10.52;2.47;;;17.80;99.90;;;;;;5044724;28;20327;-75
2023/07/01 00:49:10;;;;;;;6.10;2.17;;;17.80;99.90;;;;;;5052648;28;20044;-75
2023/07/01 00:51:37;;;;;;;8.15;2.10;;;17.80;99.90;;;;;;5051962;28;20143;-75
2023/07/01 00:54:03;;;;;;;11.43;2.30;;;17.80;99.90;;;;;;5042803;28;20493;-75
2023/07/01 00:56:28;;;;;;;9.38;2.20;;;17.70;99.90;;;;;;5072046;28;20042;-75
2023/07/01 00:58:54;;;;;;;9.02;2.75;;;17.80;99.90;;;;;;5056262;28;20048;-76
2023/07/01 01:01:28;;;;;;;10.05;2.13;;;17.80;99.90;;;;;;5054701;28;20036;-76
2023/07/01 01:04:34;;;;;;;9.98;2.50;;;17.80;99.90;;;;;;5041098;28;20049;-76
2023/07/01 01:07:09;;;;;;;8.32;2.22;;;17.80;99.90;;;;;;5039777;28;20096;-76
2023/07/01 01:09:59;;;;;;;8.82;2.45;;;17.80;99.90;;;;;;5051653;28;20052;-76
2023/07/01 01:12:27;;;;;;;10.57;2.38;;;17.80;99.90;;;;;;5051150;28;20048;-77
2023/07/01 01:14:53;;;;;;;8.95;2.33;;;17.80;99.90;;;;;;5067364;28;20044;-75
2023/07/01 01:17:20;;;;;;;6.85;2.33;;;17.80;99.90;;;;;;5041862;28;20591;-76
2023/07/01 01:20:12;;;;;;;4.93;2.00;;;17.80;99.90;;;;;;5053937;28;20037;-75
2023/07/01 01:22:51;;;;;;;8.18;2.20;;;17.80;99.90;;;;;;5064170;28;20068;-75
2023/07/01 01:25:24;;;;;;;8.48;2.63;;;17.80;99.90;;;;;;5065541;28;20052;-75
2023/07/01 01:27:52;;;;;;;6.70;2.40;;;17.70;99.90;;;;;;5056596;28;20065;-75
2023/07/01 01:30:21;;;;;;;6.53;2.17;;;17.80;99.90;;;;;;5064276;28;20045;-76
2023/07/01 01:32:47;;;;;;;6.85;2.75;;;17.80;99.90;;;;;;5059237;28;20039;-76
2023/07/01 01:35:12;;;;;;;8.50;2.45;;;17.80;99.90;;;;;;5052985;28;20040;-75
2023/07/01 01:37:45;;;;;;;8.48;2.40;;;17.80;99.90;;;;;;5043093;28;20025;-75
2023/07/01 01:40:19;;;;;;;8.10;2.22;;;17.90;99.90;;;;;;5050037;28;20104;-75
2023/07/01 01:42:45;;;;;;;8.25;2.70;;;17.80;99.90;;;;;;5056268;28;20178;-76
2023/07/01 01:45:16;;;;;;;12.60;2.90;;;17.80;99.90;;;;;;5055159;28;20048;-76
2023/07/01 01:47:42;;;;;;;10.02;2.58;;;17.80;99.90;;;;;;5068955;28;20028;-76
2023/07/01 01:50:10;;;;;;;8.10;2.22;;;17.80;99.90;;;;;;5049412;28;20055;-75
2023/07/01 01:52:36;;;;;;;5.97;2.75;;;17.90;99.90;;;;;;5047694;28;20044;-75
2023/07/01 01:55:04;;;;;;;11.98;2.75;;;17.70;99.90;;;;;;5061909;28;20033;-75
2023/07/01 01:57:30;;;;;;;11.23;3.05;;;17.70;99.90;;;;;;5074252;28;20130;-75
2023/07/01 01:59:56;;;;;;;6.80;2.78;;;17.70;99.90;;;;;;5076135;28;20115;-75
2023/07/01 02:02:22;;;;;;;7.15;2.92;;;17.60;99.90;;;;;;5081513;28;20123;-75
2023/07/01 02:04:47;;;;;;;8.85;3.35;;;17.50;99.90;;;;;;5062107;28;20120;-75
2023/07/01 02:07:13;;;;;;;11.13;3.78;;;17.30;99.90;;;;;;5064805;28;20496;-75
2023/07/01 02:09:38;;;;;;;8.85;2.90;;;17.30;99.90;;;;;;5046549;28;20040;-75
2023/07/01 02:12:04;;;;;;;8.25;3.30;;;17.30;99.90;;;;;;5073079;28;20036;-75
2023/07/01 02:14:31;;;;;;;7.03;2.80;;;17.30;99.90;;;;;;5058251;28;20039;-75
2023/07/01 02:16:57;;;;;;;7.50;3.03;;;17.30;99.90;;;;;;5084197;28;20395;-75
2023/07/01 02:19:22;;;;;;;8.30;3.30;;;17.30;99.90;;;;;;5058508;28;20037;-76
2023/07/01 02:21:48;;;;;;;9.70;3.08;;;17.30;99.90;;;;;;5054776;28;20074;-76
2023/07/01 02:24:14;;;;;;;8.20;3.00;;;17.30;99.90;;;;;;5059661;28;20044;-76
2023/07/01 02:26:39;;;;;;;9.48;4.00;;;17.30;99.90;;;;;;5055405;28;20036;-75
2023/07/01 02:29:05;;;;;;;11.15;3.70;;;17.30;99.90;;;;;;5069751;28;20056;-76
2023/07/01 02:31:30;;;;;;;10.00;3.80;;;17.30;99.90;;;;;;5057927;28;20397;-75
2023/07/01 02:34:00;;;;;;;10.15;3.80;;;17.30;99.90;;;;;;5046879;28;20083;-76
2023/07/01 02:36:26;;;;;;;8.88;3.67;;;17.30;99.90;;;;;;5073410;28;20071;-76
2023/07/01 02:38:51;;;;;;;8.60;3.40;;;17.20;99.90;;;;;;5079897;28;20068;-76
2023/07/01 02:41:17;;;;;;;9.13;3.22;;;17.20;99.90;;;;;;5049377;28;20044;-75
2023/07/01 02:43:43;;;;;;;9.02;3.28;;;17.30;99.90;;;;;;5072873;28;20040;-76
2023/07/01 02:46:08;;;;;;;7.07;3.28;;;17.30;99.90;;;;;;5069001;28;20029;-76
2023/07/01 02:48:34;;;;;;;9.50;3.35;;;17.30;99.90;;;;;;5063710;28;20119;-76
2023/07/01 02:50:59;;;;;;;12.77;3.70;;;17.30;99.90;;;;;;5044420;28;20041;-76
2023/07/01 02:53:25;;;;;;;9.02;3.58;;;17.30;99.90;;;;;;5026451;28;20060;-76
2023/07/01 02:55:50;;;;;;;8.18;3.42;;;17.40;99.90;;;;;;5029466;28;20049;-75
2023/07/01 02:58:16;;;;;;;11.40;3.80;;;17.40;99.90;;;;;;5030760;28;21537;-75
2023/07/01 03:00:42;;;;;;;10.20;3.60;;;17.40;99.90;;;;;;5048454;28;20040;-76
2023/07/01 03:03:07;;;;;;;8.48;3.53;;;17.30;99.90;;;;;;5065185;28;20085;-75
2023/07/01 03:05:34;;;;;;;9.68;3.88;;;17.30;99.90;;;;;;5034103;28;20469;-75
2023/07/01 03:07:59;;;;;;;8.77;3.47;;;17.30;99.90;;;;;;5026990;28;20037;-76
2023/07/01 03:10:25;;;;;;;10.98;3.13;;;17.20;99.90;;;;;;5041399;28;20039;-75
2023/07/01 03:12:50;;;;;;;6.88;2.78;;;17.30;99.90;;;;;;5040437;28;20033;-76
2023/07/01 03:15:16;;;;;;;10.15;3.47;;;17.20;99.90;;;;;;5026126;28;20082;-75
2023/07/01 03:17:42;;;;;;;9.02;3.15;;;17.30;99.90;;;;;;5051708;28;20405;-75
2023/07/01 03:20:20;;;;;;;7.75;3.20;;;17.30;99.90;;;;;;5047995;28;20041;-75
2023/07/01 03:22:45;;;;;;;11.23;3.65;;;17.30;99.90;;;;;;5058567;28;20075;-75
2023/07/01 03:25:11;;;;;;;8.38;3.28;;;17.30;99.90;;;;;;5041554;28;20140;-75
2023/07/01 03:27:37;;;;;;;11.48;3.85;;;17.30;99.90;;;;;;5048102;28;20429;-75
2023/07/01 03:30:03;;;;;;;7.90;3.22;;;17.20;99.90;;;;;;5043358;28;20081;-75
2023/07/01 03:32:28;;;;;;;8.57;3.33;;;17.20;99.90;;;;;;5059894;28;20044;-75
2023/07/01 03:34:55;;;;;;;9.05;3.35;;;17.10;99.90;;;;;;5043656;28;20036;-75
2023/07/01 03:37:20;;;;;;;8.57;3.60;;;17.10;99.90;;;;;;5043649;28;20048;-76
2023/07/01 03:39:46;;;;;;;10.48;3.53;;;17.10;99.90;;;;;;5042644;28;20060;-76
2023/07/01 03:42:11;;;;;;;9.23;3.25;;;17.10;99.90;;;;;;5064777;28;20066;-76
2023/07/01 03:44:37;;;;;;;6.13;3.38;;;17.00;99.90;;;;;;5061003;28;20531;-76
2023/07/01 03:47:03;;;;;;;8.10;3.35;;;16.90;99.90;;;;;;5050082;28;20580;-76
2023/07/01 03:49:30;;;;;;;7.80;3.38;;;16.90;99.90;;;;;;5027141;28;20148;-76
2023/07/01 03:51:55;;;;;;;8.85;3.40;;;16.80;99.90;;;;;;5040272;28;20049;-76
2023/07/01 03:54:21;;;;;;;8.52;3.50;;;16.80;99.90;;;;;;5048348;28;20063;-75
2023/07/01 03:56:46;;;;;;;8.35;3.67;;;16.80;99.90;;;;;;5023693;28;20041;-76
2023/07/01 03:59:12;;;;;;;8.55;3.67;;;16.80;99.90;;;;;;5045050;28;20068;-76
2023/07/01 04:01:37;;;;;;;8.15;3.25;;;16.70;99.90;;;;;;5043067;28;20033;-76
2023/07/01 04:04:03;;;;;;;7.55;3.50;;;16.70;99.90;;;;;;5044234;28;20078;-76
2023/07/01 04:06:28;;;;;;;10.20;3.50;;;16.70;99.90;;;;;;5026789;28;20511;-76
2023/07/01 04:08:54;;;;;;;8.52;3.38;;;16.70;99.90;;;;;;5028617;28;20492;-76
2023/07/01 04:11:21;;;;;;;9.57;3.70;;;16.70;99.90;;;;;;5036855;28;20041;-76
2023/07/01 04:13:47;;;;;;;9.15;3.35;;;16.70;99.90;;;;;;5056049;28;20637;-76
2023/07/01 04:16:12;;;;;;;8.13;3.42;;;16.70;99.90;;;;;;5067332;28;20116;-76
2023/07/01 04:18:38;;;;;;;8.13;3.17;;;16.70;99.90;;;;;;5056918;28;20041;-76
2023/07/01 04:21:03;;;;;;;8.25;3.22;;;16.70;99.90;;;;;;5040647;28;20124;-76
2023/07/01 04:23:29;;;;;;;7.13;2.97;;;16.70;99.90;;;;;;5039717;28;21568;-76
2023/07/01 04:25:54;;;;;;;9.98;3.67;;;16.80;99.90;;;;;;5026181;28;20072;-76
2023/07/01 04:28:20;;;;;;;10.00;3.45;;;16.70;99.90;;;;;;5044996;28;21482;-75
2023/07/01 04:30:45;;;;;;;6.25;3.10;;;16.70;99.90;;;;;;5042715;28;20040;-75
2023/07/01 04:33:11;;;;;;;5.93;3.38;;;16.70;99.90;;;;;;5047834;28;20481;-75
2023/07/01 04:35:37;;;;;;;7.93;3.28;;;16.70;99.90;;;;;;5040299;28;20036;-76
2023/07/01 04:38:03;;;;;;;6.43;3.10;;;16.80;99.90;;;;;;5033928;28;20068;-75
2023/07/01 04:40:29;;;;;;;8.18;2.95;;;16.80;99.90;;;;;;5022934;28;20045;-75
2023/07/01 04:42:54;;;;;;;7.13;3.38;;;16.80;99.90;;;;;;5053357;28;20408;-75
2023/07/01 04:45:20;;;;;;;6.93;3.40;;;16.70;99.90;;;;;;5026116;28;20044;-75
2023/07/01 04:47:47;;;;;;;8.25;3.45;;;16.70;99.90;;;;;;5030857;28;20129;-76
2023/07/01 04:50:13;;;;;;;8.20;3.60;;;16.80;99.90;;;;;;5048525;28;20032;-75
2023/07/01 04:52:39;;;;;;;8.55;3.28;;;16.80;99.90;;;;;;5043193;28;20503;-75
2023/07/01 04:55:05;;;;;;;7.55;3.60;;;16.80;99.90;;;;;;5045366;28;21468;-76
2023/07/01 04:57:30;;;;;;;7.22;3.45;;;16.80;99.90;;;;;;5024697;28;20056;-75
2023/07/01 04:59:56;;;;;;;8.88;3.47;;;16.80;99.90;;;;;;5059118;28;20048;-75
2023/07/01 05:02:23;;;;;;;6.97;3.28;;;16.80;99.90;;;;;;5022306;28;20048;-75
2023/07/01 05:04:48;;;;;;;8.88;3.60;;;16.90;99.90;;;;;;5029609;28;20194;-75
2023/07/01 05:07:14;;;;;;;9.75;3.38;;;16.90;99.90;;;;;;5039450;28;20048;-75
2023/07/01 05:09:40;;;;;;;7.43;3.30;;;16.90;99.90;;;;;;5043583;28;20056;-75
2023/07/01 05:12:05;;;;;;;7.10;3.55;;;16.90;99.90;;;;;;5049463;28;20044;-75
2023/07/01 05:14:31;;;;;;;7.53;3.58;;;16.90;99.90;;;;;;5053913;28;20036;-75
2023/07/01 05:16:57;;;;;;;10.52;3.78;;;16.80;99.90;;;;;;5052669;28;20098;-76
2023/07/01 05:19:22;;;;;;;8.27;3.58;;;16.90;99.90;;;;;;5039967;28;20036;-76
2023/07/01 05:21:52;;;;;;;8.50;3.50;;;16.90;99.90;;;;;;5039944;28;20053;-75
2023/07/01 05:24:18;;;;;;;7.85;3.88;;;16.90;99.90;;;;;;5056675;28;20439;-76
2023/07/01 05:26:49;;;;;;;8.52;3.50;;;16.90;99.90;;;;;;5039218;28;20060;-74
2023/07/01 05:29:14;;;;;;;7.07;3.22;;;16.90;99.90;;;;;;5026151;28;20049;-76
2023/07/01 05:31:40;;;;;;;7.68;3.72;;;16.90;99.90;;;;;;5039694;28;20037;-75
2023/07/01 05:34:06;;;;;;;9.75;3.72;;;17.00;99.90;;;;;;5029394;28;20036;-75
2023/07/01 05:36:31;;;;;;;8.73;3.85;;;16.90;99.90;;;;;;5029250;28;20039;-75
2023/07/01 05:38:57;;;;;;;7.63;3.60;;;17.00;99.90;;;;;;5056075;28;20097;-75
2023/07/01 05:41:23;;;;;;;8.77;3.58;;;16.90;99.90;;;;;;5055657;28;20063;-76
2023/07/01 05:43:49;;;;;;;10.27;3.67;;;16.90;99.90;;;;;;5032093;28;20405;-76
2023/07/01 05:46:15;;;;;;;8.85;4.35;;;17.00;99.90;;;;;;5044192;28;20051;-75
2023/07/01 05:48:41;;;;;;;9.18;4.13;;;17.00;99.90;;;;;;5039648;28;20099;-75
2023/07/01 05:51:07;;;;;;;8.05;3.90;;;17.00;99.90;;;;;;5039936;28;20037;-75
2023/07/01 05:53:32;;;;;;;11.77;3.88;;;17.00;99.90;;;;;;5031205;28;20032;-75
2023/07/01 05:55:58;;;;;;;7.72;3.80;;;17.00;99.90;;;;;;5039256;28;20530;-75
2023/07/01 05:58:23;;;;;;;7.90;3.63;;;17.10;99.90;;;;;;5045599;28;20070;-76
2023/07/01 06:00:50;;;;;;;6.78;3.28;;;17.10;99.90;;;;;;5027491;28;20045;-76
2023/07/01 06:03:15;;;;;;;9.07;3.70;;;17.10;99.90;;;;;;5041890;28;20051;-75
2023/07/01 06:05:41;;;;;;;8.70;4.07;;;17.00;99.90;;;;;;5026188;28;20968;-76
2023/07/01 06:08:07;;;;;;;5.85;3.15;;;17.10;99.90;;;;;;5038345;28;20044;-75
2023/07/01 06:10:33;;;;;;;8.05;3.80;;;17.10;99.90;;;;;;5046641;28;20113;-75
2023/07/01 06:12:59;;;;;;;11.85;3.05;;;17.00;99.90;;;;;;5044847;28;20489;-76
2023/07/01 06:15:25;;;;;;;10.77;4.22;;;17.10;99.90;;;;;;5050706;28;20460;-75
2023/07/01 06:17:50;;;;;;;7.03;3.67;;;17.20;99.90;;;;;;5064782;28;20123;-74
2023/07/01 06:20:16;;;;;;;8.45;4.00;;;17.20;99.90;;;;;;5046884;28;20071;-75
2023/07/01 06:22:41;;;;;;;7.40;3.97;;;17.20;99.90;;;;;;5071595;28;20035;-74
2023/07/01 06:25:10;;;;;;;7.55;3.70;;;17.20;99.90;;;;;;5054832;28;20459;-74
2023/07/01 06:27:36;;;;;;;11.13;4.53;;;17.20;99.90;;;;;;5071274;28;20500;-75
2023/07/01 06:30:03;;;;;;;7.50;3.95;;;17.30;99.90;;;;;;5071463;28;20047;-74
2023/07/01 06:32:29;;;;;;;7.97;3.97;;;17.20;99.90;;;;;;5071382;28;20037;-75
2023/07/01 06:34:55;;;;;;;8.38;4.30;;;17.20;99.90;;;;;;5055013;28;20396;-75
2023/07/01 06:37:21;;;;;;;6.95;3.85;;;17.20;99.90;;;;;;5054925;28;20098;-75
2023/07/01 06:39:46;;;;;;;10.80;4.63;;;17.30;99.90;;;;;;5054752;28;20496;-75
2023/07/01 06:42:12;;;;;;;9.10;4.22;;;17.30;99.90;;;;;;5072909;28;20040;-75
2023/07/01 06:44:38;;;;;;;7.63;3.90;;;17.20;99.90;;;;;;5073919;28;20040;-76
2023/07/01 06:47:04;;;;;;;7.50;4.18;;;17.20;99.90;;;;;;5075318;28;20044;-76
2023/07/01 06:49:30;;;;;;;8.95;4.40;;;17.20;99.90;;;;;;5073770;28;20044;-75
2023/07/01 06:51:55;;;;;;;7.45;3.90;;;17.10;99.90;;;;;;5058213;28;20051;-76
2023/07/01 06:54:21;;;;;;;8.35;4.07;;;17.20;99.90;;;;;;5058488;28;20132;-75
2023/07/01 06:56:46;;;;;;;7.90;3.92;;;17.20;99.90;;;;;;5074693;28;20082;-75
2023/07/01 06:59:12;;;;;;;7.28;4.45;;;17.20;99.90;;;;;;5075015;28;20052;-75
2023/07/01 07:01:37;;;;;;;7.25;4.30;;;17.20;99.90;;;;;;5074881;28;20501;-75
2023/07/01 07:04:03;;;;;;;8.93;4.15;;;17.30;99.90;;;;;;5074701;28;20078;-76
2023/07/01 07:06:29;;;;;;;8.45;4.30;;;17.30;99.90;;;;;;5074763;28;20043;-75
2023/07/01 07:08:54;;;;;;;6.63;4.10;;;17.30;99.90;;;;;;5074493;28;20496;-75
2023/07/01 07:11:20;;;;;;;6.45;4.20;;;17.30;99.90;;;;;;5074735;28;20072;-75
2023/07/01 07:13:45;;;;;;;7.53;3.95;;;17.40;99.90;;;;;;5074389;28;20035;-75
2023/07/01 07:16:11;;;;;;;7.32;3.90;;;17.40;99.90;;;;;;5056622;28;20032;-75
2023/07/01 07:18:36;;;;;;;7.40;4.28;;;17.40;99.90;;;;;;5057778;28;20124;-75
2023/07/01 07:21:02;;;;;;;7.35;3.92;;;17.40;99.90;;;;;;5039117;28;20044;-76
2023/07/01 07:23:28;;;;;;;5.13;3.42;;;17.40;99.90;;;;;;5038195;28;20040;-75
2023/07/01 07:25:53;;;;;;;6.93;3.92;;;17.50;99.90;;;;;;5071044;28;20090;-75
2023/07/01 07:28:19;;;;;;;9.02;4.45;;;17.50;99.90;;;;;;5053996;28;20045;-73
2023/07/01 07:30:44;;;;;;;6.53;4.03;;;17.50;99.90;;;;;;5054397;28;20045;-74
2023/07/01 07:33:10;;;;;;;6.38;3.90;;;17.50;99.90;;;;;;5038405;28;20033;-74
2023/07/01 07:35:36;;;;;;;8.00;4.22;;;17.60;99.90;;;;;;5058383;28;20087;-74
2023/07/01 07:38:02;;;;;;;7.63;4.00;;;17.60;99.90;;;;;;5055693;28;20028;-74
2023/07/01 07:40:27;;;;;;;5.70;3.40;;;17.70;99.90;;;;;;5046452;28;20033;-74
2023/07/01 07:42:53;;;;;;;7.57;3.80;;;17.70;99.90;;;;;;5053719;28;20040;-74
2023/07/01 07:45:20;;;;;;;7.28;3.72;;;17.70;99.90;;;;;;5036868;28;20115;-74
2023/07/01 07:47:46;;;;;;;6.20;3.72;;;17.70;99.90;;;;;;5053504;28;20037;-74
2023/07/01 07:50:12;;;;;;;6.95;3.78;;;17.60;99.90;;;;;;5076661;28;20048;-74
2023/07/01 07:52:38;;;;;;;6.95;3.40;;;17.70;99.90;;;;;;5053096;28;20075;-75
2023/07/01 07:55:04;;;;;;;6.40;3.80;;;17.70;99.90;;;;;;5053011;28;20121;-74
2023/07/01 07:57:29;;;;;;;7.00;3.60;;;17.70;99.90;;;;;;5072320;28;20602;-74
2023/07/01 07:59:55;;;;;;;7.03;3.75;;;17.80;99.90;;;;;;5073720;28;20076;-74
2023/07/01 08:02:21;;;;;;;6.80;4.18;;;17.70;99.90;;;;;;5045296;28;20415;-74
2023/07/01 08:04:47;;;;;;;6.80;4.18;;;17.70;99.90;;;;;;5054414;28;20504;-74
2023/07/01 08:07:13;;;;;;;6.47;4.15;;;17.80;99.90;;;;;;5056241;28;20036;-74
2023/07/01 08:09:39;;;;;;;6.78;4.03;;;17.90;99.90;;;;;;5069329;28;20387;-74
2023/07/01 08:12:05;;;;;;;8.52;4.22;;;17.70;99.90;;;;;;5077523;28;20040;-74
2023/07/01 08:14:31;;;;;;;7.03;4.30;;;17.80;99.90;;;;;;5056475;28;20071;-74
2023/07/01 08:16:59;;;;;;;6.38;4.25;;;17.80;99.90;;;;;;5056150;28;20444;-74
2023/07/01 08:19:25;;;;;;;8.60;4.30;;;17.90;99.90;;;;;;5038349;28;20040;-73
2023/07/01 08:21:51;;;;;;;8.18;4.53;;;17.80;99.90;;;;;;5036085;28;20040;-74
2023/07/01 08:24:17;;;;;;;8.93;4.90;;;17.80;99.90;;;;;;5066886;28;20562;-74
2023/07/01 08:26:43;;;;;;;8.60;4.55;;;17.90;99.90;;;;;;5044698;28;20041;-74
2023/07/01 08:29:10;;;;;;;7.05;4.30;;;17.90;99.90;;;;;;5052590;28;20059;-74
2023/07/01 08:31:36;;;;;;;7.72;4.40;;;18.00;99.90;;;;;;5068050;28;20049;-74
2023/07/01 08:34:02;;;;;;;8.63;4.63;;;18.10;99.90;;;;;;5054576;28;20374;-73
2023/07/01 08:36:28;;;;;;;7.68;4.80;;;18.20;99.90;;;;;;5036114;28;20033;-74
2023/07/01 08:38:54;;;;;;;7.68;4.78;;;18.10;99.90;;;;;;5036243;28;20083;-73
2023/07/01 08:41:23;;;;;;;7.15;4.30;;;18.10;99.90;;;;;;5052411;28;20076;-74
2023/07/01 08:43:51;;;;;;;6.70;4.18;;;18.20;99.90;;;;;;5052478;28;20476;-74
2023/07/01 08:46:18;;;;;;;7.47;4.50;;;18.20;99.90;;;;;;5054691;28;20401;-74
2023/07/01 08:48:46;;;;;;;7.32;4.57;;;18.20;99.90;;;;;;5062723;28;20052;-74
2023/07/01 08:51:20;;;;;;;7.18;4.43;;;18.20;99.90;;;;;;5068324;28;20493;-74
2023/07/01 08:53:47;;;;;;;8.43;4.90;;;18.20;99.90;;;;;;5063651;28;20033;-74
2023/07/01 08:56:13;;;;;;;7.63;4.47;;;18.20;99.90;;;;;;5035704;28;20036;-74
2023/07/01 08:58:45;;;;;;;6.70;4.57;;;18.10;99.90;;;;;;5059771;28;20161;-74
2023/07/01 09:01:11;;;;;;;6.93;4.53;;;18.10;99.90;;;;;;5070122;28;20101;-74
2023/07/01 09:03:37;;;;;;;7.53;5.05;;;18.20;99.90;;;;;;5067700;28;20041;-74
2023/07/01 09:06:05;;;;;;;8.45;5.40;;;18.10;99.90;;;;;;5067826;28;20493;-74
2023/07/01 09:08:38;;;;;;;8.45;4.95;;;18.20;99.90;;;;;;5057329;28;20049;-74
2023/07/01 09:11:09;;;;;;;7.97;5.13;;;18.20;99.90;;;;;;5071308;28;20036;-74
2023/07/01 09:13:35;;;;;;;7.00;5.05;;;18.20;99.90;;;;;;5062794;28;20401;-74
2023/07/01 09:16:00;;;;;;;9.50;5.28;;;18.20;99.90;;;;;;5069748;28;20111;-74
2023/07/01 09:18:28;;;;;;;9.05;5.25;;;18.20;99.90;;;;;;5062447;28;20382;-74
2023/07/01 09:20:55;;;;;;;7.72;5.35;;;18.20;99.90;;;;;;5052893;28;20040;-74
2023/07/01 09:23:28;;;;;;;7.45;5.10;;;18.30;99.90;;;;;;5071736;28;20041;-74
2023/07/01 09:26:17;;;;;;;8.20;5.88;;;18.30;99.90;;;;;;5067560;28;20391;-74
2023/07/01 09:28:49;;;;;;;7.88;5.28;;;18.30;99.90;;;;;;5044725;28;20134;-74
2023/07/01 09:31:15;;;;;;;;;;;18.30;99.90;;;;;;5051979;28;20040;-74
2023/07/01 09:34:00;;;;;;;7.15;5.07;;;18.30;99.90;;;;;;5068512;28;19970;-74
2023/07/01 09:36:27;;;;;;;7.43;5.10;;;18.30;99.90;;;;;;5071975;28;20484;-73
2023/07/01 09:38:53;;;;;;;6.88;5.05;;;18.40;99.90;;;;;;5042373;28;20047;-74
2023/07/01 09:41:23;;;;;;;7.53;5.10;;;18.40;99.90;;;;;;5077119;28;20051;-74
2023/07/01 09:43:49;;;;;;;10.02;4.85;;;18.40;99.90;;;;;;5055702;28;20063;-74
2023/07/01 09:46:15;;;;;;;7.70;5.05;;;18.40;99.90;;;;;;5058097;28;20041;-74
2023/07/01 09:48:53;;;;;;;6.60;4.75;;;18.30;99.90;;;;;;5065865;28;20101;-74
2023/07/01 09:51:20;;;;;;;6.70;4.55;;;18.50;99.90;;;;;;5036751;28;20098;-74
2023/07/01 09:53:46;;;;;;;6.80;4.18;;;18.50;99.90;;;;;;5054924;28;20139;-74
2023/07/01 09:56:15;;;;;;;7.15;4.60;;;18.40;99.90;;;;;;5068952;28;20537;-74
2023/07/01 09:58:41;;;;;;;6.68;4.82;;;18.50;99.90;;;;;;5053041;28;20094;-74
2023/07/01 10:01:07;;;;;;;6.55;4.68;;;18.50;99.90;;;;;;5049974;28;20079;-74
2023/07/01 10:03:33;;;;;;;6.55;4.47;;;18.50;99.90;;;;;;5052481;28;20071;-74
2023/07/01 10:05:58;;;;;;;6.80;4.25;;;18.50;99.90;;;;;;5053630;28;20036;-74
2023/07/01 10:08:24;;;;;;;7.20;4.40;;;18.50;99.90;;;;;;5057340;28;20049;-74
2023/07/01 10:11:21;;;;;;;7.28;4.60;;;18.60;99.90;;;;;;5072404;28;20429;-74
2023/07/01 10:13:55;;;;;;;7.22;4.38;;;18.70;99.90;;;;;;5059642;28;20063;-74
2023/07/01 10:16:21;;;;;;;6.90;4.55;;;18.70;99.90;;;;;;5057502;28;20485;-74
2023/07/01 10:18:47;;;;;;;8.07;5.00;;;18.70;99.90;;;;;;5040972;28;20503;-74
2023/07/01 10:21:28;;;;;;;7.63;5.30;;;18.80;99.90;;;;;;5062644;28;20048;-74
2023/07/01 10:23:59;;;;;;;7.05;5.32;;;18.80;99.90;;;;;;5037988;28;20063;-74
2023/07/01 10:26:47;;;;;;;6.65;4.63;;;18.80;99.90;;;;;;5056574;28;20037;-75
2023/07/01 10:29:28;;;;;;;7.30;5.00;;;18.70;99.90;;;;;;5051776;28;20493;-74
2023/07/01 10:32:09;;;;;;;7.35;5.05;;;18.80;99.90;;;;;;5061281;28;20125;-74
2023/07/01 10:34:53;;;;;;;6.68;4.90;;;18.80;99.90;;;;;;5066027;28;20041;-73
2023/07/01 10:37:21;;;;;;;7.68;5.03;;;18.80;99.90;;;;;;5071623;28;20111;-74
2023/07/01 10:39:48;;;;;;;7.03;5.25;;;18.90;99.90;;;;;;5064597;28;20041;-74
2023/07/01 10:42:33;;;;;;;7.25;5.18;;;18.90;99.90;;;;;;5054290;28;20500;-74
2023/07/01 10:45:11;;;;;;;7.72;5.35;;;18.90;99.90;;;;;;5046664;28;20044;-74
2023/07/01 10:47:44;;;;;;;8.40;5.65;;;19.00;99.90;;;;;;5059446;28;20552;-74
2023/07/01 10:50:19;;;;;;;7.45;5.55;;;19.00;99.90;;;;;;5055021;28;20450;-74
2023/07/01 10:52:57;;;;;;;7.40;5.40;;;19.00;99.90;;;;;;5070564;28;20536;-74
2023/07/01 10:55:46;;;;;;;7.72;5.53;;;19.10;99.90;;;;;;5042502;28;20044;-74
2023/07/01 10:58:28;;;;;;;7.93;5.60;;;19.10;99.90;;;;;;5079278;28;20033;-74
2023/07/01 11:00:58;;;;;;;7.22;5.28;;;19.00;99.90;;;;;;5054642;28;20370;-74
2023/07/01 11:03:33;;;;;;;8.65;5.80;;;19.00;99.90;;;;;;5050137;28;20396;-74
2023/07/01 11:06:03;;;;;;;8.80;6.25;;;19.00;99.90;;;;;;5057680;28;20482;-74
2023/07/01 11:08:34;;;;;;;8.23;5.40;;;18.90;99.90;;;;;;5057150;28;20405;-74
2023/07/01 11:11:00;;;;;;;7.20;5.30;;;18.90;99.90;;;;;;5063637;28;20072;-74
2023/07/01 11:13:26;;;;;;;8.63;5.78;;;18.80;99.90;;;;;;5049920;28;20087;-74
2023/07/01 11:16:11;;;;;;;9.43;6.13;;;18.80;99.90;;;;;;5037534;28;20041;-74
2023/07/01 11:18:40;;;;;;;13.38;4.88;;;18.70;99.90;;;;;;5054292;28;20131;-72
2023/07/01 11:21:08;;;;;;;6.43;2.95;;;18.60;99.90;;;;;;5052508;28;20131;-72
2023/07/01 11:23:34;;;;;;;5.82;1.90;;;18.60;99.90;;;;;;5042234;28;20042;-72
2023/07/01 11:25:59;;;;;;;3.30;1.85;;;18.60;99.90;;;;;;5056695;28;20123;-72
2023/07/01 11:28:35;;;;;;;3.75;1.70;;;18.50;99.90;;;;;;5055659;28;20099;-72
2023/07/01 11:31:17;;;;;;;4.00;1.80;;;18.50;99.90;;;;;;5053499;28;20033;-73
2023/07/01 11:33:44;;;;;;;;;;;18.50;99.90;;;;;;5065337;28;20051;-73
2023/07/01 11:36:12;;;;;;;3.45;1.48;;;18.50;99.90;;;;;;5056542;28;19995;-73
2023/07/01 11:38:37;;;;;;;3.72;1.73;;;18.50;99.90;;;;;;5057717;28;20047;-73
2023/07/01 11:41:03;;;;;;;2.75;1.00;;;18.50;99.90;;;;;;5050240;28;20435;-74
2023/07/01 11:43:29;;;;;;;1.38;0.90;;;18.60;99.90;;;;;;5041645;28;20037;-73
2023/07/01 11:45:55;;;;;;;2.83;0.90;;;18.70;99.90;;;;;;5053752;28;20044;-73
2023/07/01 11:48:33;;;;;;;1.50;0.80;;;18.80;99.90;;;;;;5069900;28;20045;-73
2023/07/01 11:50:58;;;;;;;1.73;0.95;;;18.90;99.90;;;;;;5069261;28;20043;-73
2023/07/01 11:53:27;;;;;;;2.28;1.13;;;18.90;99.90;;;;;;5057064;28;20119;-73
2023/07/01 11:55:56;;;;;;;2.63;1.20;;;18.90;99.90;;;;;;5073917;28;20064;-74
2023/07/01 11:58:33;;;;;;;3.17;1.00;;;19.00;99.90;;;;;;5074181;28;20048;-73
2023/07/01 12:00:59;;;;;;;2.20;1.25;;;19.00;99.90;;;;;;5057348;28;20041;-73
2023/07/01 12:03:32;;;;;;;3.15;1.50;;;19.10;99.90;;;;;;5070411;28;20135;-73
2023/07/01 12:05:58;;;;;;;3.33;1.67;;;19.30;99.90;;;;;;5045843;28;20040;-73
2023/07/01 12:08:24;;;;;;;2.67;1.73;;;19.40;99.90;;;;;;5073655;28;20560;-73
2023/07/01 12:10:50;;;;;;;3.47;1.85;;;19.80;99.90;;;;;;5070468;28;20037;-74
2023/07/01 12:13:32;;;;;;;4.22;2.00;;;19.80;99.90;;;;;;5054249;28;20086;-73
2023/07/01 12:15:58;;;;;;;;;;;19.80;99.90;;;;;;5064610;28;20082;-74
2023/07/01 12:18:29;;;;;;;7.07;2.88;;;19.80;99.90;;;;;;5066721;28;20276;-73
2023/07/01 12:20:55;;;;;;;5.32;2.95;;;20.00;99.90;;;;;;5066771;28;20137;-73
2023/07/01 12:23:22;;;;;;;4.82;2.97;;;19.90;99.90;;;;;;5054222;28;20174;-73
2023/07/01 12:25:47;;;;;;;5.45;3.45;;;19.90;99.90;;;;;;5060981;28;20424;-73
2023/07/01 12:28:13;;;;;;;5.90;3.30;;;19.90;99.90;;;;;;5063576;28;20063;-73
2023/07/01 12:30:39;;;;;;;6.40;3.40;;;19.90;99.90;;;;;;5079949;28;20052;-73
2023/07/01 12:33:04;;;;;;;5.55;3.05;;;19.80;99.90;;;;;;5071594;28;20051;-73
2023/07/01 12:35:30;;;;;;;5.85;3.10;;;19.80;99.90;;;;;;5036569;28;20036;-73
2023/07/01 12:38:00;;;;;;;6.32;3.30;;;19.70;99.90;;;;;;5035420;28;20091;-73
2023/07/01 12:40:27;;;;;;;5.45;3.38;;;19.70;99.90;;;;;;5035270;28;20127;-73
2023/07/01 12:42:54;;;;;;;8.70;4.05;;;19.80;99.90;;;;;;5071102;28;20045;-73
2023/07/01 12:45:20;;;;;;;6.85;4.28;;;19.70;99.90;;;;;;5052878;28;20041;-73
2023/07/01 12:47:45;;;;;;;7.88;4.90;;;19.60;99.90;;;;;;5067644;28;20068;-73